Time;durP1;ratioP1;P1;durP2;ratioP2;P2;SDS_P1;SDS_P2;PMS_P1;PMS_P2;Temp;Humidity;BMP_temperature;BMP_pressure;BME280_temperature;BME280_humidity;BME280_pressure;Samples;Min_cycle;Max_cycle;Signal;HPM_P1;HPM_P2
2022/06/20 00:01:06;;;;;;;;;;;;;;;13.00;100.00;99773.09;5051618;28;901;-63
2022/06/20 00:03:38;;;;;;;;;;;;;;;13.03;100.00;99770.25;5051654;28;857;-63
2022/06/20 00:06:05;;;;;;;;;;;;;;;13.07;100.00;99765.44;5051592;28;822;-63
2022/06/20 00:08:32;;;;;;;;;;;;;;;13.06;100.00;99766.66;5051578;28;810;-63
2022/06/20 00:10:58;;;;;;;;;;;;;;;13.02;100.00;99757.59;5051562;28;826;-63
2022/06/20 00:13:27;;;;;;;;;;;;;;;13.03;100.00;99761.16;5051541;28;921;-64
2022/06/20 00:16:00;;;;;;;;;;;;;;;12.98;100.00;99761.63;5051434;28;1945;-64
2022/06/20 00:18:28;;;;;;;;;;;;;;;12.92;100.00;99755.00;5051378;28;865;-63
2022/06/20 00:20:55;;;;;;;;;;;;;;;12.89;100.00;99753.84;5033550;28;1255;-63
2022/06/20 00:23:22;;;;;;;;;;;;;;;12.94;100.00;99749.81;5051451;28;819;-63
2022/06/20 00:25:49;;;;;;;;;;;;;;;12.95;100.00;99749.41;5051456;28;795;-64
2022/06/20 00:28:17;;;;;;;;;;;;;;;12.92;100.00;99739.13;5055374;28;846;-64
2022/06/20 00:30:43;;;;;;;;;;;;;;;13.01;100.00;99735.81;5055872;28;1033;-63
2022/06/20 00:33:10;;;;;;;;;;;;;;;13.08;100.00;99739.28;5055260;28;1366;-64
2022/06/20 00:35:37;;;;;;;;;;;;;;;13.15;100.00;99730.03;5055420;28;1918;-64
2022/06/20 00:38:05;;;;;;;;;;;;;;;13.22;100.00;99732.69;5055385;28;827;-64
2022/06/20 00:40:36;;;;;;;;;;;;;;;13.32;100.00;99730.19;5055388;28;799;-64
2022/06/20 00:43:05;;;;;;;;;;;;;;;13.34;100.00;99725.78;5055302;28;1037;-64
2022/06/20 00:45:36;;;;;;;;;;;;;;;13.34;100.00;99723.00;5055221;28;854;-64
2022/06/20 00:48:07;;;;;;;;;;;;;;;13.27;100.00;99720.31;5055082;28;943;-64
2022/06/20 00:50:33;;;;;;;;;;;;;;;13.12;100.00;99717.03;5055812;28;759;-64
2022/06/20 00:53:18;;;;;;;;;;;;;;;13.00;100.00;99712.84;5055052;28;838;-64
2022/06/20 00:55:48;;;;;;;;;;;;;;;12.94;100.00;99716.50;5054994;28;1886;-64
2022/06/20 00:58:25;;;;;;;;;;;;;;;12.87;100.00;99704.31;5055049;28;917;-64
2022/06/20 01:00:51;;;;;;;;;;;;;;;12.89;100.00;99709.47;5037104;28;1371;-63
2022/06/20 01:03:21;;;;;;;;;;;;;;;12.86;100.00;99705.50;5037117;28;1414;-63
2022/06/20 01:06:04;;;;;;;;;;;;;;;12.95;100.00;99704.19;5054806;28;977;-64
2022/06/20 01:08:36;;;;;;;;;;;;;;;12.99;100.00;99711.25;5054858;28;898;-64
2022/06/20 01:11:04;;;;;;;;;;;;;;;13.08;100.00;99716.28;5054812;28;823;-64
2022/06/20 01:13:31;;;;;;;;;;;;;;;13.17;100.00;99708.19;5054706;28;905;-64
2022/06/20 01:16:06;;;;;;;;;;;;;;;13.23;100.00;99709.28;5054542;28;1977;-64
2022/06/20 01:18:34;;;;;;;;;;;;;;;13.32;100.00;99717.09;5054593;28;897;-64
2022/06/20 01:21:11;;;;;;;;;;;;;;;13.43;100.00;99711.34;5055214;28;787;-64
2022/06/20 01:23:37;;;;;;;;;;;;;;;13.52;100.00;99717.13;5054582;28;838;-64
2022/06/20 01:26:04;;;;;;;;;;;;;;;13.45;100.00;99709.72;5054631;28;827;-64
2022/06/20 01:28:33;;;;;;;;;;;;;;;13.40;100.00;99709.41;5054461;28;818;-64
2022/06/20 01:31:00;;;;;;;;;;;;;;;13.40;100.00;99701.09;5054404;28;1175;-64
2022/06/20 01:33:27;;;;;;;;;;;;;;;13.34;100.00;99711.91;5054416;28;920;-64
2022/06/20 01:38:42;;;;;;;;;;;;;;;13.11;100.00;99709.09;5012872;28;1108;-64
2022/06/20 01:44:17;;;;;;;;;;;;;;;12.95;100.00;99715.31;4954087;29;1138;-64
2022/06/20 01:46:44;;;;;;;;;;;;;;;12.96;100.00;99712.09;4953938;29;828;-64
2022/06/20 01:49:14;;;;;;;;;;;;;;;12.97;100.00;99712.88;5003127;28;990;-64
2022/06/20 01:52:07;;;;;;;;;;;;;;;13.06;100.00;99716.72;5054018;28;830;-64
2022/06/20 01:54:36;;;;;;;;;;;;;;;13.12;100.00;99722.56;5038059;28;1243;-64
2022/06/20 01:57:04;;;;;;;;;;;;;;;13.02;100.00;99721.53;5053818;28;1886;-64
2022/06/20 01:59:35;;;;;;;;;;;;;;;12.90;100.00;99716.56;5054064;28;1252;-64
2022/06/20 02:02:02;;;;;;;;;;;;;;;12.85;100.00;99715.06;5053942;28;802;-64
2022/06/20 02:04:32;;;;;;;;;;;;;;;12.84;100.00;99716.28;5053823;28;873;-62
2022/06/20 02:07:00;;;;;;;;;;;;;;;12.85;100.00;99717.84;5053930;28;802;-64
2022/06/20 02:09:28;;;;;;;;;;;;;;;12.90;100.00;99718.56;5053700;28;893;-64
2022/06/20 02:11:55;;;;;;;;;;;;;;;12.91;100.00;99717.34;5054024;28;830;-64
2022/06/20 02:14:41;;;;;;;;;;;;;;;12.82;100.00;99723.41;5053494;28;806;-63
2022/06/20 02:17:15;;;;;;;;;;;;;;;12.74;100.00;99710.88;5053571;28;830;-64
2022/06/20 02:19:47;;;;;;;;;;;;;;;12.66;100.00;99710.97;5053518;28;838;-64
2022/06/20 02:22:15;;;;;;;;;;;;;;;12.61;100.00;99702.34;5053460;28;810;-63
2022/06/20 02:24:44;;;;;;;;;;;;;;;12.68;100.00;99705.03;5053377;28;810;-64
2022/06/20 02:27:15;;;;;;;;;;;;;;;12.76;100.00;99705.69;5053858;28;818;-64
2022/06/20 02:29:41;;;;;;;;;;;;;;;12.77;100.00;99705.28;5053441;28;914;-64
2022/06/20 02:32:14;;;;;;;;;;;;;;;12.75;100.00;99704.91;5053073;28;1397;-64
2022/06/20 02:34:41;;;;;;;;;;;;;;;12.68;100.00;99710.56;5053210;28;818;-64
2022/06/20 02:37:09;;;;;;;;;;;;;;;12.61;100.00;99703.16;5035329;28;1180;-64
2022/06/20 02:39:39;;;;;;;;;;;;;;;12.53;100.00;99710.00;5035138;28;1192;-63
2022/06/20 02:42:08;;;;;;;;;;;;;;;12.42;100.00;99707.38;5053108;28;826;-63
2022/06/20 02:44:36;;;;;;;;;;;;;;;12.40;100.00;99709.78;5052941;28;815;-64
2022/06/20 02:47:04;;;;;;;;;;;;;;;12.41;100.00;99711.34;5053014;28;1032;-63
2022/06/20 02:49:32;;;;;;;;;;;;;;;12.45;100.00;99708.53;5052196;28;862;-64
2022/06/20 02:52:01;;;;;;;;;;;;;;;12.49;100.00;99705.72;5053045;28;842;-63
2022/06/20 02:54:30;;;;;;;;;;;;;;;12.55;100.00;99706.81;5052918;28;877;-64
2022/06/20 02:57:02;;;;;;;;;;;;;;;12.59;100.00;99713.09;5052978;28;1902;-63
2022/06/20 02:59:32;;;;;;;;;;;;;;;12.65;100.00;99708.63;5052821;28;904;-63
2022/06/20 03:02:06;;;;;;;;;;;;;;;12.72;100.00;99700.22;5052731;28;874;-63
2022/06/20 03:04:35;;;;;;;;;;;;;;;12.81;100.00;99692.13;5052681;28;881;-63
2022/06/20 03:07:06;;;;;;;;;;;;;;;12.92;100.00;99685.63;5052596;28;885;-63
2022/06/20 03:09:35;;;;;;;;;;;;;;;13.02;100.00;99684.69;5052748;28;791;-63
2022/06/20 03:12:03;;;;;;;;;;;;;;;13.11;100.00;99698.78;5052568;28;795;-63
2022/06/20 03:14:36;;;;;;;;;;;;;;;13.15;100.00;99695.97;5052374;28;831;-63
2022/06/20 03:17:05;;;;;;;;;;;;;;;13.17;100.00;99691.56;5052438;28;1882;-63
2022/06/20 03:19:34;;;;;;;;;;;;;;;13.24;100.00;99683.09;5034489;28;1398;-63
2022/06/20 03:22:06;;;;;;;;;;;;;;;13.32;100.00;99678.25;5052303;28;846;-63
2022/06/20 03:24:34;;;;;;;;;;;;;;;13.45;100.00;99681.94;5052422;28;926;-63
2022/06/20 03:27:02;;;;;;;;;;;;;;;13.59;100.00;99675.38;5052592;28;743;-63
2022/06/20 03:29:29;;;;;;;;;;;;;;;13.72;100.00;99683.84;5052482;28;917;-63
2022/06/20 03:31:56;;;;;;;;;;;;;;;13.88;100.00;99681.13;5052156;28;1277;-63
2022/06/20 03:34:23;;;;;;;;;;;;;;;14.02;100.00;99685.59;5034488;28;1176;-63
2022/06/20 03:36:51;;;;;;;;;;;;;;;14.16;100.00;99687.28;5052201;28;1941;-63
2022/06/20 03:39:19;;;;;;;;;;;;;;;14.33;100.00;99688.13;5052265;28;1050;-63
2022/06/20 03:41:46;;;;;;;;;;;;;;;14.47;100.00;99693.38;5052430;28;834;-63
2022/06/20 03:44:16;;;;;;;;;;;;;;;14.58;100.00;99693.16;5051829;28;889;-63
2022/06/20 03:46:53;;;;;;;;;;;;;;;14.64;100.00;99688.66;5051870;28;927;-64
2022/06/20 03:49:20;;;;;;;;;;;;;;;14.73;100.00;99693.59;5051805;28;909;-64
2022/06/20 03:51:51;;;;;;;;;;;;;;;14.82;100.00;99696.56;5051869;28;869;-64
2022/06/20 03:54:41;;;;;;;;;;;;;;;14.93;100.00;99684.38;5051799;28;842;-64
2022/06/20 03:57:07;;;;;;;;;;;;;;;15.05;100.00;99687.25;5046482;28;1886;-64
2022/06/20 03:59:54;;;;;;;;;;;;;;;15.21;100.00;99691.25;5052007;28;791;-63
2022/06/20 04:02:42;;;;;;;;;;;;;;;15.39;100.00;99693.56;5051569;28;815;-63
2022/06/20 04:05:12;;;;;;;;;;;;;;;15.60;100.00;99681.84;5051684;28;842;-63
2022/06/20 04:07:46;;;;;;;;;;;;;;;15.82;100.00;99681.28;5051788;28;853;-63
2022/06/20 04:13:12;;;;;;;;;;;;;;;16.24;100.00;99682.03;5051460;28;620;-64
2022/06/20 04:16:05;;;;;;;;;;;;;;;16.40;100.00;99686.72;5051436;28;1967;-64
2022/06/20 04:18:38;;;;;;;;;;;;;;;16.57;100.00;99679.03;5035893;28;1365;-64
2022/06/20 04:21:17;;;;;;;;;;;;;;;16.77;100.00;99680.81;5051459;28;854;-64
2022/06/20 04:23:59;;;;;;;;;;;;;;;17.04;100.00;99680.38;5051719;28;815;-63
2022/06/20 04:26:35;;;;;;;;;;;;;;;17.45;100.00;99682.13;5051393;28;849;-63
2022/06/20 04:29:09;;;;;;;;;;;;;;;17.99;100.00;99682.25;5051278;28;1051;-64
2022/06/20 04:31:42;;;;;;;;;;;;;;;18.12;100.00;99682.97;5051180;28;1235;-64
2022/06/20 04:34:09;;;;;;;;;;;;;;;18.13;100.00;99678.91;5051334;28;830;-63
2022/06/20 04:36:38;;;;;;;;;;;;;;;18.12;100.00;99682.97;5051298;28;1906;-64
2022/06/20 04:39:11;;;;;;;;;;;;;;;18.08;100.00;99677.50;5051535;28;798;-64
2022/06/20 04:42:04;;;;;;;;;;;;;;;18.05;100.00;99681.22;5051288;28;787;-62
2022/06/20 04:44:36;;;;;;;;;;;;;;;18.05;100.00;99674.84;5031780;28;1616;-64
2022/06/20 04:47:10;;;;;;;;;;;;;;;18.13;100.00;99674.09;5051189;28;799;-64
2022/06/20 04:49:38;;;;;;;;;;;;;;;18.20;100.00;99667.47;5051831;28;786;-64
2022/06/20 04:52:08;;;;;;;;;;;;;;;18.38;99.77;99677.19;5051656;28;902;-64
2022/06/20 04:54:35;;;;;;;;;;;;;;;18.51;99.09;99673.03;5051135;28;854;-64
2022/06/20 04:57:02;;;;;;;;;;;;;;;18.64;98.59;99684.13;5051323;28;1940;-64
2022/06/20 04:59:30;;;;;;;;;;;;;;;18.80;97.93;99671.13;5051127;28;854;-64
2022/06/20 05:01:58;;;;;;;;;;;;;;;18.92;97.15;99670.25;5051204;28;795;-64
2022/06/20 05:04:27;;;;;;;;;;;;;;;19.04;95.89;99665.78;5051021;28;839;-64
2022/06/20 05:06:55;;;;;;;;;;;;;;;19.13;94.47;99655.34;5051328;28;858;-64
2022/06/20 05:09:25;;;;;;;;;;;;;;;19.23;93.16;99663.78;5051033;28;819;-64
2022/06/20 05:11:53;;;;;;;;;;;;;;;19.42;92.20;99661.78;5050877;28;889;-64
2022/06/20 05:14:25;;;;;;;;;;;;;;;19.64;91.14;99664.41;5054598;28;897;-64
2022/06/20 05:16:53;;;;;;;;;;;;;;;19.88;90.11;99665.31;5054639;28;1882;-64
2022/06/20 05:19:25;;;;;;;;;;;;;;;20.08;89.21;99670.44;5054625;28;854;-65
2022/06/20 05:21:53;;;;;;;;;;;;;;;20.33;87.58;99663.66;5054762;28;822;-65
2022/06/20 05:24:23;;;;;;;;;;;;;;;20.77;85.87;99665.22;5054563;28;854;-64
2022/06/20 05:26:52;;;;;;;;;;;;;;;21.26;83.13;99666.00;5054519;28;850;-65
2022/06/20 05:29:27;;;;;;;;;;;;;;;21.87;80.41;99671.28;5054580;28;946;-64
2022/06/20 05:31:55;;;;;;;;;;;;;;;22.60;76.64;99669.72;5054200;28;1211;-65
2022/06/20 05:34:31;;;;;;;;;;;;;;;23.14;74.05;99670.22;5054643;28;889;-64
2022/06/20 05:37:17;;;;;;;;;;;;;;;23.63;71.37;99671.31;5054251;28;1965;-65
2022/06/20 05:39:48;;;;;;;;;;;;;;;24.17;69.57;99672.88;5054351;28;905;-65
2022/06/20 05:42:16;;;;;;;;;;;;;;;24.41;67.28;99675.38;5054149;28;901;-64
2022/06/20 05:44:43;;;;;;;;;;;;;;;24.74;65.82;99674.88;5054277;28;893;-64
2022/06/20 05:47:27;;;;;;;;;;;;;;;25.43;63.73;99671.94;5054138;28;831;-65
2022/06/20 05:50:27;;;;;;;;;;;;;;;26.35;60.60;99665.13;5054012;28;822;-65
2022/06/20 05:52:54;;;;;;;;;;;;;;;27.01;57.78;99665.56;5031253;28;1315;-66
2022/06/20 05:55:23;;;;;;;;;;;;;;;27.05;56.95;99658.31;5054113;28;1949;-65
2022/06/20 05:57:51;;;;;;;;;;;;;;;27.56;56.85;99660.97;5054219;28;815;-65
2022/06/20 06:00:20;;;;;;;;;;;;;;;28.11;53.51;99655.47;5053903;28;818;-66
2022/06/20 06:02:49;;;;;;;;;;;;;;;28.59;51.88;99656.88;5054674;28;787;-67
2022/06/20 06:05:18;;;;;;;;;;;;;;;29.16;50.46;99662.75;5053797;28;846;-68
2022/06/20 06:07:53;;;;;;;;;;;;;;;29.44;48.97;99653.06;5053760;28;831;-66
2022/06/20 06:10:42;;;;;;;;;;;;;;;29.86;48.10;99647.84;5053620;28;941;-67
2022/06/20 06:13:27;;;;;;;;;;;;;;;29.74;47.01;99655.78;5053693;28;834;-65
2022/06/20 06:18:51;;;;;;;;;;;;;;;30.65;46.27;99644.44;5053565;28;676;-66
2022/06/20 06:21:18;;;;;;;;;;;;;;;31.32;44.31;99648.09;5053541;28;814;-66
2022/06/20 06:23:46;;;;;;;;;;;;;;;31.73;42.36;99648.78;5052517;28;950;-66
2022/06/20 06:26:16;;;;;;;;;;;;;;;31.76;42.77;99646.88;5053091;28;909;-66
2022/06/20 06:28:44;;;;;;;;;;;;;;;32.13;42.10;99634.31;5053569;28;835;-66
2022/06/20 06:31:19;;;;;;;;;;;;;;;32.10;40.77;99641.16;5053295;28;1411;-67
2022/06/20 06:33:51;;;;;;;;;;;;;;;32.03;41.22;99631.19;5053377;28;814;-67
2022/06/20 06:36:22;;;;;;;;;;;;;;;32.50;40.42;99635.19;5053157;28;1975;-66
2022/06/20 06:38:55;;;;;;;;;;;;;;;32.94;39.57;99623.84;5035693;28;1315;-66
2022/06/20 06:41:25;;;;;;;;;;;;;;;32.87;40.11;99624.59;5053051;28;882;-66
2022/06/20 06:43:54;;;;;;;;;;;;;;;32.63;39.28;99626.53;5053093;28;861;-66
2022/06/20 06:46:29;;;;;;;;;;;;;;;32.55;40.59;99612.19;5053015;28;953;-66
2022/06/20 06:48:58;;;;;;;;;;;;;;;32.67;40.33;99617.63;5053297;28;823;-66
2022/06/20 06:51:28;;;;;;;;;;;;;;;32.77;39.36;99607.16;5053587;28;767;-66
2022/06/20 06:54:04;;;;;;;;;;;;;;;32.85;39.24;99607.22;5052890;28;862;-67
2022/06/20 06:56:37;;;;;;;;;;;;;;;32.81;40.04;99598.22;5052774;28;1975;-67
2022/06/20 06:59:06;;;;;;;;;;;;;;;33.24;39.03;99602.47;5052787;28;913;-67
2022/06/20 07:01:35;;;;;;;;;;;;;;;33.11;38.39;99600.50;5053216;28;803;-66
2022/06/20 07:04:05;;;;;;;;;;;;;;;33.16;37.61;99599.59;5053178;28;858;-70
2022/06/20 07:06:40;;;;;;;;;;;;;;;33.03;38.18;99603.31;5052710;28;901;-66
2022/06/20 07:09:19;;;;;;;;;;;;;;;33.65;37.34;99600.69;5052663;28;790;-66
2022/06/20 07:11:49;;;;;;;;;;;;;;;33.81;36.94;99596.53;5052624;28;881;-66
2022/06/20 07:14:16;;;;;;;;;;;;;;;33.81;36.94;99590.78;5052610;28;862;-65
2022/06/20 07:16:46;;;;;;;;;;;;;;;34.31;35.80;99588.34;5052643;28;1894;-65
2022/06/20 07:19:13;;;;;;;;;;;;;;;34.19;35.62;99589.31;5052356;28;907;-65
2022/06/20 07:21:39;;;;;;;;;;;;;;;34.02;35.35;99587.00;5034571;28;1648;-67
2022/06/20 07:24:08;;;;;;;;;;;;;;;33.95;35.45;99591.38;5052318;28;803;-66
2022/06/20 07:26:39;;;;;;;;;;;;;;;34.26;34.89;99589.28;5052373;28;818;-66
2022/06/20 07:29:25;;;;;;;;;;;;;;;34.83;33.69;99585.22;5052189;28;1053;-66
2022/06/20 07:32:00;;;;;;;;;;;;;;;35.12;32.88;99585.69;5051924;28;1272;-66
2022/06/20 07:34:39;;;;;;;;;;;;;;;35.22;33.61;99580.09;5052384;28;865;-66
2022/06/20 07:37:24;;;;;;;;;;;;;;;34.96;32.83;99575.59;5051720;28;1973;-66
2022/06/20 07:40:00;;;;;;;;;;;;;;;34.30;34.73;99581.06;5052041;28;810;-68
2022/06/20 07:42:33;;;;;;;;;;;;;;;34.00;34.79;99593.28;5051999;28;862;-67
2022/06/20 07:45:11;;;;;;;;;;;;;;;34.16;34.42;99586.25;5052269;28;905;-66
2022/06/20 07:47:59;;;;;;;;;;;;;;;34.86;33.78;99584.03;5051922;28;834;-67
2022/06/20 07:50:39;;;;;;;;;;;;;;;34.86;32.41;99584.03;5051731;28;1164;-67
2022/06/20 07:53:21;;;;;;;;;;;;;;;34.64;33.29;99582.00;5051961;28;810;-64
2022/06/20 07:55:53;;;;;;;;;;;;;;;34.69;33.67;99581.78;5051682;28;1890;-67
2022/06/20 07:58:25;;;;;;;;;;;;;;;34.73;33.02;99584.28;5051801;28;815;-67
2022/06/20 08:00:52;;;;;;;;;;;;;;;34.08;33.12;99584.69;5052013;28;810;-66
2022/06/20 08:03:22;;;;;;;;;;;;;;;32.95;34.22;99583.22;5051670;28;850;-67
2022/06/20 08:06:07;;;;;;;;;;;;;;;33.24;33.47;99573.81;5051702;28;858;-68
2022/06/20 08:08:43;;;;;;;;;;;;;;;31.61;36.47;99571.13;5051615;28;827;-66
2022/06/20 08:14:07;;;;;;;;;;;;;;;29.28;42.25;99561.69;5051834;28;676;-66
2022/06/20 08:16:35;;;;;;;;;;;;;;;30.67;40.19;99564.06;5051478;28;1949;-66
2022/06/20 08:19:01;;;;;;;;;;;;;;;32.91;37.60;99562.78;5051479;28;850;-66
2022/06/20 08:21:30;;;;;;;;;;;;;;;34.60;33.69;99552.91;5051470;28;827;-66
2022/06/20 08:24:06;;;;;;;;;;;;;;;35.56;32.56;99556.53;5033546;28;1341;-67
2022/06/20 08:26:34;;;;;;;;;;;;;;;36.42;32.45;99550.88;5051351;28;906;-67
2022/06/20 08:29:04;;;;;;;;;;;;;;;36.88;30.74;99553.28;5051278;28;1051;-67
2022/06/20 08:31:32;;;;;;;;;;;;;;;36.29;31.09;99554.84;5050969;28;1387;-65
2022/06/20 08:34:18;;;;;;;;;;;;;;;35.65;31.60;99552.28;5051708;28;806;-65
2022/06/20 08:36:49;;;;;;;;;;;;;;;36.22;30.62;99547.81;5051264;28;1906;-67
2022/06/20 08:39:30;;;;;;;;;;;;;;;35.97;30.40;99542.06;5051198;28;854;-66
2022/06/20 08:42:00;;;;;;;;;;;;;;;36.00;30.62;99546.66;5051231;28;850;-67
2022/06/20 08:44:56;;;;;;;;;;;;;;;36.30;31.05;99539.13;5051226;28;846;-66
2022/06/20 08:47:38;;;;;;;;;;;;;;;36.34;30.59;99533.72;5042785;28;1213;-67
2022/06/20 08:50:25;;;;;;;;;;;;;;;35.36;30.90;99538.28;5055517;28;867;-67
2022/06/20 08:52:57;;;;;;;;;;;;;;;35.02;31.44;99538.06;5055194;28;912;-67
2022/06/20 08:55:28;;;;;;;;;;;;;;;35.39;31.21;99536.34;5055092;28;1957;-67
2022/06/20 08:58:12;;;;;;;;;;;;;;;35.81;31.88;99526.31;5055181;28;806;-68
2022/06/20 09:00:50;;;;;;;;;;;;;;;35.62;29.96;99521.81;5055047;28;877;-67
2022/06/20 09:03:27;;;;;;;;;;;;;;;35.03;31.51;99525.97;5054992;28;853;-68
2022/06/20 09:05:59;;;;;;;;;;;;;;;34.54;31.01;99515.81;5054981;28;842;-66
2022/06/20 09:08:29;;;;;;;;;;;;;;;33.50;32.48;99521.97;5054856;28;859;-67
2022/06/20 09:11:14;;;;;;;;;;;;;;;33.71;32.75;99506.72;5054910;28;806;-68
2022/06/20 09:13:50;;;;;;;;;;;;;;;33.72;33.96;99514.75;5054747;28;1027;-67
2022/06/20 09:16:27;;;;;;;;;;;;;;;33.76;32.13;99506.53;5054694;28;1951;-66
2022/06/20 09:19:08;;;;;;;;;;;;;;;33.68;33.47;99510.75;5054675;28;1039;-67
2022/06/20 09:21:59;;;;;;;;;;;;;;;33.73;33.19;99504.03;5054970;28;818;-70
2022/06/20 09:24:43;;;;;;;;;;;;;;;33.31;34.75;99515.81;5035173;28;1200;-66
2022/06/20 09:27:15;;;;;;;;;;;;;;;33.04;34.93;99518.97;5054781;28;873;-66
2022/06/20 09:29:49;;;;;;;;;;;;;;;33.23;34.90;99515.03;5054662;28;1072;-67
2022/06/20 09:32:34;;;;;;;;;;;;;;;33.20;36.27;99513.28;5054235;28;1266;-68
2022/06/20 09:35:17;;;;;;;;;;;;;;;33.33;35.94;99511.06;5054510;28;1969;-67
2022/06/20 09:38:05;;;;;;;;;;;;;;;31.80;37.61;99516.66;5054279;28;819;-66
2022/06/20 09:40:40;;;;;;;;;;;;;;;30.41;40.32;99514.28;5054362;28;827;-67
2022/06/20 09:43:18;;;;;;;;;;;;;;;30.98;39.26;99499.59;5054322;28;846;-67
2022/06/20 09:45:45;;;;;;;;;;;;;;;31.67;38.02;99502.44;5036561;28;1387;-66
2022/06/20 09:48:16;;;;;;;;;;;;;;;31.87;35.96;99503.75;5054402;28;873;-66
2022/06/20 09:51:01;;;;;;;;;;;;;;;32.20;36.73;99501.34;5054137;28;854;-67
2022/06/20 09:53:28;;;;;;;;;;;;;;;32.17;36.86;99493.91;5054190;28;823;-68
2022/06/20 09:55:57;;;;;;;;;;;;;;;32.00;38.39;99500.81;5053999;28;1941;-70
2022/06/20 09:58:33;;;;;;;;;;;;;;;31.62;37.59;99498.41;5053718;28;882;-66
2022/06/20 10:01:12;;;;;;;;;;;;;;;30.56;39.68;99502.31;5053914;28;958;-68
2022/06/20 10:32:16;;;;;;;;;;;;;;;30.56;40.82;99496.59;5242193;22;1508;-67
2022/06/20 10:34:43;;;;;;;;;;;;;;;30.14;41.50;99482.13;5053395;28;912;-67
2022/06/20 10:37:22;;;;;;;;;;;;;;;30.78;42.19;99488.91;5053323;28;1991;-68
2022/06/20 10:39:57;;;;;;;;;;;;;;;31.27;42.14;99494.03;5053988;28;779;-70
2022/06/20 10:42:32;;;;;;;;;;;;;;;31.72;40.57;99490.88;5053078;28;889;-68
2022/06/20 10:45:14;;;;;;;;;;;;;;;31.84;39.95;99490.59;5053177;28;822;-66
2022/06/20 10:47:53;;;;;;;;;;;;;;;30.93;39.90;99486.25;5053396;28;869;-68
2022/06/20 10:50:30;;;;;;;;;;;;;;;31.30;40.78;99487.22;5053189;28;838;-68
2022/06/20 10:53:01;;;;;;;;;;;;;;;31.89;39.06;99478.25;5052971;28;806;-67
2022/06/20 10:55:46;;;;;;;;;;;;;;;32.43;38.92;99478.59;5052847;28;1882;-67
2022/06/20 10:58:19;;;;;;;;;;;;;;;32.95;37.94;99482.28;5052925;28;854;-68
2022/06/20 11:00:54;;;;;;;;;;;;;;;33.31;37.50;99470.00;5052733;28;825;-67
2022/06/20 11:03:40;;;;;;;;;;;;;;;33.67;36.88;99467.00;5052818;28;825;-67
2022/06/20 11:06:08;;;;;;;;;;;;;;;34.21;35.38;99466.19;5053066;28;915;-66
2022/06/20 11:08:35;;;;;;;;;;;;;;;34.35;35.37;99471.13;5052596;28;878;-65
2022/06/20 11:11:08;;;;;;;;;;;;;;;33.88;35.74;99468.88;5051946;28;923;-66
2022/06/20 11:13:40;;;;;;;;;;;;;;;33.87;35.57;99468.13;5052583;28;806;-65
2022/06/20 11:16:07;;;;;;;;;;;;;;;34.02;35.09;99458.00;5052649;28;1878;-66
2022/06/20 11:18:52;;;;;;;;;;;;;;;34.07;34.64;99474.22;5052695;28;897;-67
2022/06/20 11:21:23;;;;;;;;;;;;;;;34.48;35.16;99463.63;5052457;28;833;-66
2022/06/20 11:24:07;;;;;;;;;;;;;;;34.51;34.11;99451.75;5052291;28;1278;-65
2022/06/20 11:26:37;;;;;;;;;;;;;;;34.01;33.06;99453.59;5052282;28;941;-66
2022/06/20 11:29:07;;;;;;;;;;;;;;;34.29;33.34;99447.63;5052282;28;841;-66
2022/06/20 11:31:57;;;;;;;;;;;;;;;34.71;33.32;99441.34;5051984;28;1428;-65
2022/06/20 11:34:32;;;;;;;;;;;;;;;34.83;32.05;99432.31;5052230;28;881;-66
2022/06/20 11:37:19;;;;;;;;;;;;;;;34.77;31.85;99435.41;5052121;28;1972;-66
2022/06/20 11:40:06;;;;;;;;;;;;;;;34.09;33.07;99437.13;5031110;28;1209;-66
2022/06/20 11:42:41;;;;;;;;;;;;;;;34.73;32.26;99430.06;5052096;28;873;-65
2022/06/20 11:45:34;;;;;;;;;;;;;;;35.45;31.19;99435.56;5052014;28;826;-65
2022/06/20 11:48:07;;;;;;;;;;;;;;;35.68;30.39;99430.41;5051972;28;853;-65
2022/06/20 11:50:41;;;;;;;;;;;;;;;35.76;30.77;99427.44;5051886;28;799;-65
2022/06/20 11:53:08;;;;;;;;;;;;;;;36.05;28.66;99416.25;5051862;28;807;-66
2022/06/20 11:56:09;;;;;;;;;;;;;;;36.45;27.92;99423.09;5051716;28;1917;-65
2022/06/20 11:58:54;;;;;;;;;;;;;;;36.55;30.52;99421.03;5012620;28;1405;-65
2022/06/20 12:01:25;;;;;;;;;;;;;;;36.33;31.60;99417.09;5051833;28;825;-67
2022/06/20 12:04:07;;;;;;;;;;;;;;;36.85;30.64;99419.91;5052041;28;830;-66
2022/06/20 12:06:37;;;;;;;;;;;;;;;37.18;30.25;99426.16;5051619;28;826;-67
2022/06/20 12:09:27;;;;;;;;;;;;;;;37.48;29.82;99421.25;5052004;28;842;-66
2022/06/20 12:11:57;;;;;;;;;;;;;;;37.59;29.06;99423.59;5046303;28;1553;-66
2022/06/20 12:14:24;;;;;;;;;;;;;;;37.80;29.01;99422.28;5033768;28;1414;-66
2022/06/20 12:16:51;;;;;;;;;;;;;;;37.85;28.44;99412.56;5051600;28;1898;-68
2022/06/20 12:24:57;;;;;;;;;;;;;;;34.45;35.72;99410.28;5051515;28;620;-67
2022/06/20 12:27:26;;;;;;;;;;;;;;;35.20;35.51;99395.34;5051721;28;960;-62
2022/06/20 12:29:52;;;;;;;;;;;;;;;36.26;33.12;99392.81;5051322;28;806;-66
2022/06/20 12:32:26;;;;;;;;;;;;;;;37.15;32.22;99392.81;5051130;28;1207;-67
2022/06/20 12:34:55;;;;;;;;;;;;;;;37.38;31.82;99385.88;5051410;28;884;-65
2022/06/20 12:37:28;;;;;;;;;;;;;;;37.58;32.48;99386.75;5051244;28;1913;-66
2022/06/20 12:40:00;;;;;;;;;;;;;;;37.49;31.75;99393.19;5051302;28;873;-68
2022/06/20 12:42:32;;;;;;;;;;;;;;;37.59;31.59;99391.88;5051367;28;798;-66
2022/06/20 12:45:06;;;;;;;;;;;;;;;38.09;30.84;99381.97;5051330;28;905;-67
2022/06/20 12:47:52;;;;;;;;;;;;;;;38.03;30.05;99378.63;5052055;28;813;-67
2022/06/20 12:50:39;;;;;;;;;;;;;;;38.59;29.71;99374.78;5051223;28;829;-67
2022/06/20 12:53:24;;;;;;;;;;;;;;;38.29;30.42;99381.94;5043718;28;1241;-66
2022/06/20 12:56:20;;;;;;;;;;;;;;;38.08;30.72;99377.53;5051151;28;1906;-65
2022/06/20 12:58:58;;;;;;;;;;;;;;;37.07;31.38;99379.84;5051317;28;858;-65
2022/06/20 13:01:33;;;;;;;;;;;;;;;36.04;33.32;99365.06;5051120;28;819;-64
2022/06/20 13:04:23;;;;;;;;;;;;;;;36.70;33.02;99365.41;5051418;28;901;-66
2022/06/20 13:06:58;;;;;;;;;;;;;;;37.04;32.57;99373.16;5051206;28;865;-65
2022/06/20 13:09:40;;;;;;;;;;;;;;;37.13;32.26;99365.97;5051094;28;814;-66
2022/06/20 13:12:18;;;;;;;;;;;;;;;37.12;32.28;99370.19;5051021;28;795;-68
2022/06/20 13:14:51;;;;;;;;;;;;;;;36.26;32.91;99366.94;5051006;28;786;-65
2022/06/20 13:17:23;;;;;;;;;;;;;;;36.27;33.89;99356.94;5051572;28;1901;-67
2022/06/20 13:20:08;;;;;;;;;;;;;;;36.44;33.58;99358.28;5050985;28;874;-65
2022/06/20 13:22:43;;;;;;;;;;;;;;;35.56;34.89;99360.38;5051084;28;834;-67
2022/06/20 13:25:28;;;;;;;;;;;;;;;33.03;38.18;99362.09;5050878;28;810;-64
2022/06/20 13:28:08;;;;;;;;;;;;;;;31.66;40.97;99364.56;5050838;28;786;-69
2022/06/20 13:30:57;;;;;;;;;;;;;;;30.17;43.05;99363.41;5050899;28;938;-67
2022/06/20 13:33:40;;;;;;;;;;;;;;;31.56;42.45;99366.41;5045613;28;991;-69
2022/06/20 13:36:30;;;;;;;;;;;;;;;33.26;38.94;99365.75;5036450;28;1977;-66
2022/06/20 13:39:15;;;;;;;;;;;;;;;34.19;37.22;99359.91;5054350;28;834;-69
2022/06/20 13:41:44;;;;;;;;;;;;;;;34.38;35.89;99350.84;5054404;28;894;-70
2022/06/20 13:44:27;;;;;;;;;;;;;;;33.90;36.32;99343.72;5054266;28;841;-68
2022/06/20 13:46:57;;;;;;;;;;;;;;;33.60;36.63;99338.06;5054222;28;838;-67
2022/06/20 13:49:33;;;;;;;;;;;;;;;33.62;37.04;99341.13;5054409;28;807;-68
2022/06/20 13:52:06;;;;;;;;;;;;;;;33.55;36.89;99340.53;5054143;28;861;-68
2022/06/20 13:54:39;;;;;;;;;;;;;;;33.07;37.20;99334.63;5054168;28;861;-68
2022/06/20 13:57:05;;;;;;;;;;;;;;;32.77;38.03;99334.59;5053836;28;1882;-65
2022/06/20 13:59:47;;;;;;;;;;;;;;;32.11;38.46;99331.91;5053950;28;901;-65
2022/06/20 14:02:34;;;;;;;;;;;;;;;31.65;39.44;99330.88;5054130;28;818;-68
2022/06/20 14:05:07;;;;;;;;;;;;;;;31.51;40.28;99327.34;5053968;28;810;-66
2022/06/20 14:07:36;;;;;;;;;;;;;;;31.36;39.82;99322.25;5054078;28;901;-67
2022/06/20 14:10:05;;;;;;;;;;;;;;;31.05;39.58;99321.28;5053743;28;818;-68
2022/06/20 14:12:33;;;;;;;;;;;;;;;30.69;40.61;99322.63;5053817;28;822;-66
2022/06/20 14:15:04;;;;;;;;;;;;;;;30.13;41.69;99315.31;5053698;28;828;-68
2022/06/20 14:17:33;;;;;;;;;;;;;;;29.70;42.22;99299.34;5035920;28;1886;-66
2022/06/20 14:20:23;;;;;;;;;;;;;;;29.09;43.93;99308.50;5053728;28;921;-71
2022/06/20 14:22:51;;;;;;;;;;;;;;;28.66;44.69;99317.19;5047803;28;1200;-70